Pisgah, Maryland
Current Conditions -  °F | °C
As of 4:56 AM on Tuesday 21 Oct 2014 (Local Time) from KNYG Reporting Station
Broken Clouds Broken Clouds  
Wind Chill: 56°   Ceiling: 11000
Heat Index: 56°   Visibility: 10mi
Dew Point: 47°   Wind: 5mph
Humidity: 72%   Direction: 230°SW
Pressure: 29.88"   Gusts: NA
Location:  38.5236°N, 77.1913°W
Report Text: KNYG 210856Z AUTO 23004KT 10SM BKN110 13/08 A2988 RMK AO2 SLP120 T01330083 56011 $
Loading
Personal Weather Stations






























Interactive Weather Map
Tropical Storm Tracking
New forecast layout! Learn more

10-Day Weather Forecast

Advertisements
Track Severe Weather on mobile